الصفحة الرئيسية
METAR-TAF:

METAR-TAF

مطار :

سوكوتاي, تايلاند

دائرة عرض: 17-14-16N, خط طول: 099-49-05E, ارتفاع: 55 متر

مراقبة الطقس الحالي

تاريخ ووقت الإصدار 12ساعات و 41 دقيقة قبل الساعة 10:00UTC
ريح 2 عقدةمن اتجاهات متغيرة
درجة الحرارة 35°درجة مئوية
الرطوبة 53%
ضغط 1002 hPa
الرؤية 10 كم أو أكثر
غيوم قليلة على ارتفاع 2500 قدم

METAR: VTPO 031000Z VRB02KT 9999 FEW025 35/24 Q1002 NOSIG

زمن: 05:41 (22:41 UTC)

توقعات

تاريخ ووقت الإصدار 5ساعات و 41 دقيقة قبل الساعة 17:00UTC
التوقعات صالحة من03 الساعة 18 UTC إلى 04 الساعة 18 UTC
ريح 5 عقدة من الجنوب/الجنوب الغربي
الرؤية 10 كم أو أكثر
غيوم متفرقة على ارتفاع 2500 قدم
مؤقت
من 04 الساعة 06 UTC إلى 04 الساعة 12 UTC
ريح 15 عقدة من الغرب/الجنوب الغربي تتزايد حتى 25 عقدة
الرؤية: 4000 متر
غيوم قليلة على ارتفاع 2000 قدم, مزنة ركامية.
غيوم مفككة على ارتفاع 2500 قدم
عاصفة رعدية, مطر

TAF: VTPO 031700Z 0318/0418 20005KT 9999 SCT025 TEMPO 0406/0412 24015G25KT 4000 TSRA FEW020CB BKN025

أرصاد الطقس والتوقعات من أكثر من 4000 مطار (تقارير الطقس للمطار METAR والتنبؤ بالطقس بالمطارTAF).

المحطات المتاحة هي النقط الصفراء والحمراء على الخريطة.

حرك المؤشر فوق النقطة لمعرفة اسم المحطة.

ثم انقر لمعرفة أرصاد وتوقعات الطقس.

لتغيير الخارطة: اضغط على الأزرار الخضراء مع رمز الصليب الأسود للتكبير. على الزر الأخضر مع شرطة للتصغير، أو على الأسهم الخضراء للخرائط المجاورة.


METAR-TAF: